Terminal Aerodrome Forecast
Issued by NWS

Home | Current Version | Previous Version | Graphics & Text | Print | Product List | Glossary On
Versions: 1 2 3 4 5 6 7 8 9 10 11 12
000
FTUS43 KIWX 270520
TAFSBN
TAF
KSBN 270520Z 2706/2806 23008KT P6SM SKC
     FM271600 25018G26KT P6SM SKC
     FM272300 26008KT P6SM BKN060=

USA.gov is the U.S. government's official web portal to all federal, state and local government web resources and services.